createdAt,value
2023-01-11T00:00:43.421Z,7.45
2023-01-11T00:01:43.600Z,7.45
2023-01-11T00:02:43.832Z,7.40
2023-01-11T00:03:44.001Z,7.40
2023-01-11T00:04:44.206Z,7.42
2023-01-11T00:05:44.372Z,7.37
2023-01-11T00:06:45.618Z,7.42
2023-01-11T00:07:44.803Z,7.41
2023-01-11T00:08:44.984Z,7.40
2023-01-11T00:09:45.175Z,7.53
2023-01-11T00:10:45.364Z,7.45
2023-01-11T00:11:45.554Z,7.49
2023-01-11T00:12:45.745Z,7.42
2023-01-11T00:13:45.982Z,7.41
2023-01-11T00:14:46.172Z,7.47
2023-01-11T00:15:46.351Z,7.47
2023-01-11T00:16:47.538Z,7.47
2023-01-11T00:17:46.703Z,7.56
2023-01-11T00:18:46.903Z,7.52
2023-01-11T00:19:47.068Z,7.63
2023-01-11T00:20:49.082Z,7.50
2023-01-11T00:21:47.471Z,7.58
2023-01-11T00:22:47.632Z,7.63
2023-01-11T00:23:49.583Z,7.56
2023-01-11T00:24:47.993Z,7.67
2023-01-11T00:25:49.079Z,7.59
2023-01-11T00:26:48.350Z,7.74
2023-01-11T00:27:48.517Z,7.78
2023-01-11T00:28:48.669Z,7.77
2023-01-11T00:29:48.844Z,7.75
2023-01-11T00:30:49.540Z,7.82
2023-01-11T00:31:49.181Z,7.75
2023-01-11T00:32:49.342Z,7.75
2023-01-11T00:33:49.522Z,7.78
2023-01-11T00:34:49.730Z,7.81
2023-01-11T00:35:49.890Z,7.84
2023-01-11T00:36:50.053Z,7.85
2023-01-11T00:37:51.086Z,7.89
2023-01-11T00:38:50.336Z,7.89
2023-01-11T00:39:52.052Z,7.96
2023-01-11T00:40:50.701Z,7.92
2023-01-11T00:41:50.919Z,7.94
2023-01-11T00:42:51.009Z,7.89
2023-01-11T00:43:51.197Z,7.89
2023-01-11T00:44:51.368Z,7.94
2023-01-11T00:45:52.156Z,8.03
2023-01-11T00:46:51.729Z,8.00
2023-01-11T00:47:51.958Z,8.04
2023-01-11T00:48:52.044Z,8.08
2023-01-11T00:49:53.093Z,8.04
2023-01-11T00:50:53.085Z,8.07
2023-01-11T00:51:52.479Z,8.11
2023-01-11T00:52:53.588Z,8.20
2023-01-11T00:53:52.876Z,8.08
2023-01-11T00:54:53.590Z,8.04
2023-01-11T00:55:53.237Z,8.11
2023-01-11T00:56:53.366Z,8.08
2023-01-11T00:57:53.530Z,8.11
2023-01-11T00:58:53.686Z,8.07
2023-01-11T00:59:54.575Z,8.12
2023-01-11T01:00:54.563Z,8.14
2023-01-11T01:01:54.218Z,8.11
2023-01-11T01:02:54.687Z,8.11
2023-01-11T01:03:54.541Z,8.08
2023-01-11T01:04:55.551Z,8.14
2023-01-11T01:05:54.924Z,8.10
2023-01-11T01:06:55.142Z,8.07
2023-01-11T01:07:57.090Z,8.08
2023-01-11T01:08:55.430Z,8.12
2023-01-11T01:09:55.667Z,8.15
2023-01-11T01:10:56.555Z,8.12
2023-01-11T01:11:55.947Z,8.15
2023-01-11T01:12:56.113Z,8.11
2023-01-11T01:13:56.604Z,8.08
2023-01-11T01:14:56.534Z,8.10
2023-01-11T01:15:57.586Z,8.17
2023-01-11T01:16:56.860Z,8.20
2023-01-11T01:17:57.039Z,8.26
2023-01-11T01:18:58.099Z,8.11
2023-01-11T01:19:57.372Z,8.29
2023-01-11T01:20:58.050Z,8.14
2023-01-11T01:21:58.574Z,8.29
2023-01-11T01:22:57.835Z,8.11
2023-01-11T01:23:57.994Z,8.21
2023-01-11T01:24:58.173Z,8.10
2023-01-11T01:25:58.380Z,8.20
2023-01-11T01:27:00.052Z,8.11
2023-01-11T01:28:00.072Z,8.14
2023-01-11T01:28:59.596Z,8.14
2023-01-11T01:29:58.989Z,8.26
2023-01-11T01:30:59.217Z,8.25
2023-01-11T01:31:59.401Z,8.21
2023-01-11T01:32:59.563Z,8.28
2023-01-11T01:34:01.556Z,8.14
2023-01-11T01:34:59.939Z,8.18
2023-01-11T01:36:00.114Z,8.17
2023-01-11T01:37:00.264Z,8.28
2023-01-11T01:38:00.468Z,8.26
2023-01-11T01:39:01.553Z,8.18
2023-01-11T01:40:01.445Z,8.21
2023-01-11T01:41:00.965Z,8.17
2023-01-11T01:42:01.131Z,8.28
2023-01-11T01:43:01.318Z,8.28
2023-01-11T01:44:01.503Z,8.36
2023-01-11T01:45:01.659Z,8.26
2023-01-11T01:46:02.635Z,8.21
2023-01-11T01:47:02.055Z,8.17
2023-01-11T01:48:03.060Z,8.14
2023-01-11T01:49:02.426Z,8.25
2023-01-11T01:50:03.580Z,8.22
2023-01-11T01:51:02.708Z,8.11
2023-01-11T01:52:02.871Z,8.20
2023-01-11T01:53:03.062Z,8.21
2023-01-11T01:54:03.165Z,8.29
2023-01-11T01:55:04.928Z,8.18
2023-01-11T01:56:04.105Z,8.25
2023-01-11T01:57:03.766Z,8.30
2023-01-11T01:58:03.945Z,8.28
2023-01-11T01:59:04.139Z,8.30
2023-01-11T02:00:05.561Z,8.22
2023-01-11T02:01:04.463Z,8.28
2023-01-11T02:02:04.629Z,8.29
2023-01-11T02:03:04.808Z,8.30
2023-01-11T02:04:04.937Z,8.33
2023-01-11T02:05:05.126Z,8.30
2023-01-11T02:06:05.284Z,8.29
2023-01-11T02:07:06.062Z,8.28
2023-01-11T02:08:05.705Z,8.28
2023-01-11T02:09:06.734Z,8.32
2023-01-11T02:10:06.568Z,8.32
2023-01-11T02:11:06.068Z,8.25
2023-01-11T02:12:06.198Z,8.28
2023-01-11T02:13:07.327Z,8.22
2023-01-11T02:14:07.062Z,8.17
2023-01-11T02:15:06.688Z,8.33
2023-01-11T02:16:06.938Z,8.21
2023-01-11T02:17:07.027Z,8.21
2023-01-11T02:18:09.064Z,8.30
2023-01-11T02:19:07.431Z,8.18
2023-01-11T02:20:08.108Z,8.21
2023-01-11T02:21:08.121Z,8.21
2023-01-11T02:22:08.609Z,8.18
2023-01-11T02:23:09.571Z,8.35
2023-01-11T02:24:09.567Z,8.21
2023-01-11T02:25:08.446Z,8.21
2023-01-11T02:26:08.633Z,8.21
2023-01-11T02:27:08.829Z,8.25
2023-01-11T02:28:09.569Z,8.32
2023-01-11T02:29:09.237Z,8.25
2023-01-11T02:30:09.442Z,8.40
2023-01-11T02:31:09.530Z,8.36
2023-01-11T02:32:10.610Z,8.33
2023-01-11T02:33:09.873Z,8.30
2023-01-11T02:34:10.119Z,8.40
2023-01-11T02:35:10.189Z,8.36
2023-01-11T02:36:10.627Z,8.33
2023-01-11T02:37:10.543Z,8.42
2023-01-11T02:38:10.711Z,8.33
2023-01-11T02:39:11.571Z,8.33
2023-01-11T02:40:11.607Z,8.40
2023-01-11T02:41:11.274Z,8.40
2023-01-11T02:42:12.574Z,8.42
2023-01-11T02:43:11.588Z,8.33
2023-01-11T02:44:12.615Z,8.35
2023-01-11T02:45:11.903Z,8.29
2023-01-11T02:46:12.101Z,8.25
2023-01-11T02:47:13.584Z,8.32
2023-01-11T02:48:13.116Z,8.30
2023-01-11T02:49:12.526Z,8.33
2023-01-11T02:50:12.701Z,8.30
2023-01-11T02:51:14.078Z,8.29
2023-01-11T02:52:13.048Z,8.28
2023-01-11T02:53:14.079Z,8.30
2023-01-11T02:54:13.345Z,8.36
2023-01-11T02:55:14.076Z,8.26
2023-01-11T02:56:13.741Z,8.45
2023-01-11T02:57:14.572Z,8.39
2023-01-11T02:58:14.109Z,8.44
2023-01-11T02:59:16.575Z,8.48
2023-01-11T03:00:14.465Z,8.45
2023-01-11T03:01:15.618Z,8.54
2023-01-11T03:02:14.783Z,8.36
2023-01-11T03:03:15.015Z,8.35
2023-01-11T03:04:15.094Z,8.48
2023-01-11T03:05:15.271Z,8.47
2023-01-11T03:06:15.453Z,8.42
2023-01-11T03:07:17.941Z,8.29
2023-01-11T03:08:15.799Z,8.47
2023-01-11T03:09:15.934Z,8.28
2023-01-11T03:10:16.135Z,8.26
2023-01-11T03:11:16.292Z,8.28
2023-01-11T03:12:16.477Z,8.35
2023-01-11T03:13:16.636Z,8.29
2023-01-11T03:14:16.815Z,8.22
2023-01-11T03:15:18.577Z,8.32
2023-01-11T03:16:19.006Z,8.25
2023-01-11T03:17:17.393Z,8.28
2023-01-11T03:18:18.114Z,8.32
2023-01-11T03:19:17.788Z,8.29
2023-01-11T03:20:18.133Z,8.36
2023-01-11T03:21:18.152Z,8.35
2023-01-11T03:22:18.321Z,8.35
2023-01-11T03:23:18.500Z,8.32
2023-01-11T03:24:18.639Z,8.33
2023-01-11T03:25:19.582Z,8.33
2023-01-11T03:26:20.451Z,8.39
2023-01-11T03:27:19.188Z,8.35
2023-01-11T03:28:19.350Z,8.26
2023-01-11T03:29:19.533Z,8.39
2023-01-11T03:30:19.737Z,8.40
2023-01-11T03:31:19.999Z,8.44
2023-01-11T03:32:20.119Z,8.29
2023-01-11T03:33:20.333Z,8.35
2023-01-11T03:34:20.521Z,8.35
2023-01-11T03:35:20.750Z,8.44
2023-01-11T03:36:20.970Z,8.39
2023-01-11T03:37:21.181Z,8.42
2023-01-11T03:38:21.390Z,8.36
2023-01-11T03:39:22.123Z,8.44
2023-01-11T03:40:21.751Z,8.54
2023-01-11T03:41:21.838Z,8.39
2023-01-11T03:42:22.056Z,8.47
2023-01-11T03:43:22.261Z,8.44
2023-01-11T03:44:22.473Z,8.44
2023-01-11T03:45:22.671Z,8.45
2023-01-11T03:46:22.931Z,8.54
2023-01-11T03:47:23.524Z,8.50
2023-01-11T03:48:24.128Z,8.44
2023-01-11T03:49:23.398Z,8.53
2023-01-11T03:50:23.606Z,8.55
2023-01-11T03:51:23.824Z,8.54
2023-01-11T03:52:24.023Z,8.53
2023-01-11T03:53:24.969Z,8.47
2023-01-11T03:54:24.393Z,8.50
2023-01-11T03:55:24.556Z,8.53
2023-01-11T03:56:26.087Z,8.58
2023-01-11T03:57:24.865Z,8.48
2023-01-11T03:58:25.031Z,8.55
2023-01-11T03:59:25.190Z,8.55
2023-01-11T04:00:25.391Z,8.53
2023-01-11T04:01:25.555Z,8.54
2023-01-11T04:02:25.750Z,8.60
2023-01-11T04:03:27.296Z,8.54
2023-01-11T04:04:27.142Z,8.48
2023-01-11T04:05:26.283Z,8.60
2023-01-11T04:06:27.100Z,8.62
2023-01-11T04:07:26.659Z,8.57
2023-01-11T04:08:27.632Z,8.55
2023-01-11T04:09:27.044Z,8.62
2023-01-11T04:10:27.191Z,8.60
2023-01-11T04:11:27.360Z,8.71
2023-01-11T04:12:27.515Z,8.69
2023-01-11T04:13:27.660Z,8.68
2023-01-11T04:14:27.839Z,8.66
2023-01-11T04:15:27.999Z,8.71
2023-01-11T04:16:28.198Z,8.62
2023-01-11T04:17:29.130Z,8.69
2023-01-11T04:18:28.533Z,8.57
2023-01-11T04:19:28.700Z,8.65
2023-01-11T04:20:28.861Z,8.62
2023-01-11T04:21:29.039Z,8.65
2023-01-11T04:22:30.093Z,8.69
2023-01-11T04:23:29.332Z,8.73
2023-01-11T04:24:29.490Z,8.73
2023-01-11T04:25:29.672Z,8.78
2023-01-11T04:26:29.848Z,8.76
2023-01-11T04:27:30.013Z,8.60
2023-01-11T04:28:30.182Z,8.62
2023-01-11T04:29:30.335Z,8.72
2023-01-11T04:30:30.521Z,8.71
2023-01-11T04:31:30.721Z,8.69
2023-01-11T04:32:32.636Z,8.76
2023-01-11T04:33:31.155Z,8.78
2023-01-11T04:34:32.095Z,8.73
2023-01-11T04:35:31.494Z,8.71
2023-01-11T04:36:32.625Z,8.75
2023-01-11T04:37:31.901Z,8.78
2023-01-11T04:38:32.639Z,8.75
2023-01-11T04:39:32.316Z,8.73
2023-01-11T04:40:33.139Z,8.87
2023-01-11T04:41:33.598Z,8.81
2023-01-11T04:42:32.865Z,8.71
2023-01-11T04:43:33.631Z,8.76
2023-01-11T04:44:35.108Z,8.79
2023-01-11T04:45:34.157Z,8.79
2023-01-11T04:46:33.595Z,8.86
2023-01-11T04:47:34.475Z,8.78
2023-01-11T04:48:33.998Z,8.81
2023-01-11T04:49:34.174Z,8.90
2023-01-11T04:50:35.363Z,8.90
2023-01-11T04:51:35.544Z,8.88
2023-01-11T04:52:34.676Z,8.84
2023-01-11T04:53:35.607Z,8.86
2023-01-11T04:54:35.603Z,8.93
2023-01-11T04:55:35.247Z,8.91
2023-01-11T04:56:35.425Z,8.88
2023-01-11T04:57:36.614Z,8.91
2023-01-11T04:58:38.017Z,8.88
2023-01-11T04:59:38.105Z,8.94
2023-01-11T05:00:36.105Z,8.99
2023-01-11T05:01:36.296Z,8.97
2023-01-11T05:02:37.101Z,8.87
2023-01-11T05:03:36.623Z,8.88
2023-01-11T05:04:36.827Z,8.97
2023-01-11T05:05:37.013Z,9.01
2023-01-11T05:06:38.247Z,9.05
2023-01-11T05:07:37.324Z,8.96
2023-01-11T05:08:40.103Z,9.04
2023-01-11T05:09:38.624Z,9.06
2023-01-11T05:10:37.909Z,9.02
2023-01-11T05:11:38.607Z,9.01
2023-01-11T05:12:40.608Z,9.02
2023-01-11T05:13:39.153Z,9.09
2023-01-11T05:14:38.656Z,9.12
2023-01-11T05:15:39.470Z,9.12
2023-01-11T05:16:39.034Z,9.05
2023-01-11T05:17:40.149Z,9.05
2023-01-11T05:18:39.408Z,9.06
2023-01-11T05:19:39.562Z,9.09
2023-01-11T05:20:39.724Z,9.01
2023-01-11T05:21:39.927Z,9.13
2023-01-11T05:22:40.086Z,9.09
2023-01-11T05:23:40.273Z,9.15
2023-01-11T05:24:40.495Z,9.15
2023-01-11T05:25:41.150Z,9.15
2023-01-11T05:26:42.110Z,9.16
2023-01-11T05:27:42.115Z,9.23
2023-01-11T05:28:42.115Z,9.16
2023-01-11T05:29:41.275Z,9.18
2023-01-11T05:30:42.624Z,9.21
2023-01-11T05:31:42.665Z,9.23
2023-01-11T05:32:43.115Z,9.18
2023-01-11T05:33:42.649Z,9.15
2023-01-11T05:34:42.192Z,9.13
2023-01-11T05:35:42.991Z,9.16
2023-01-11T05:36:42.503Z,9.24
2023-01-11T05:37:42.648Z,9.31
2023-01-11T05:38:42.835Z,9.30
2023-01-11T05:39:42.997Z,9.30
2023-01-11T05:40:43.659Z,9.31
2023-01-11T05:41:43.314Z,9.27
2023-01-11T05:42:43.474Z,9.24
2023-01-11T05:43:43.633Z,9.34
2023-01-11T05:44:45.122Z,9.35
2023-01-11T05:45:44.624Z,9.31
2023-01-11T05:46:44.665Z,9.32
2023-01-11T05:47:45.115Z,9.40
2023-01-11T05:48:45.179Z,9.32
2023-01-11T05:49:44.718Z,9.30
2023-01-11T05:50:45.653Z,9.31
2023-01-11T05:51:45.049Z,9.43
2023-01-11T05:52:45.227Z,9.45
2023-01-11T05:53:45.406Z,9.39
2023-01-11T05:54:46.119Z,9.42
2023-01-11T05:55:48.479Z,9.48
2023-01-11T05:56:46.648Z,9.38
2023-01-11T05:57:46.175Z,9.48
2023-01-11T05:58:47.125Z,9.42
2023-01-11T05:59:46.551Z,9.31
2023-01-11T06:00:46.723Z,9.43
2023-01-11T06:01:46.983Z,9.43
2023-01-11T06:02:47.800Z,9.48
2023-01-11T06:03:47.148Z,9.48
2023-01-11T06:04:47.323Z,9.46
2023-01-11T06:05:48.157Z,9.56
2023-01-11T06:06:47.804Z,9.58
2023-01-11T06:07:47.889Z,9.50
2023-01-11T06:08:48.090Z,9.49
2023-01-11T06:09:49.989Z,9.49
2023-01-11T06:10:50.119Z,9.50
2023-01-11T06:11:48.614Z,9.48
2023-01-11T06:12:49.660Z,9.58
2023-01-11T06:13:49.169Z,9.70
2023-01-11T06:14:50.618Z,9.64
2023-01-11T06:15:49.287Z,9.53
2023-01-11T06:16:50.242Z,9.66
2023-01-11T06:17:50.623Z,9.68
2023-01-11T06:18:50.668Z,9.58
2023-01-11T06:19:50.661Z,9.53
2023-01-11T06:20:50.332Z,9.63
2023-01-11T06:21:50.525Z,9.68
2023-01-11T06:22:50.709Z,9.64
2023-01-11T06:23:51.623Z,9.60
2023-01-11T06:24:51.026Z,9.66
2023-01-11T06:25:51.306Z,9.50
2023-01-11T06:26:51.385Z,9.53
2023-01-11T06:27:52.171Z,9.61
2023-01-11T06:28:51.847Z,9.67
2023-01-11T06:29:52.028Z,9.70
2023-01-11T06:30:52.737Z,9.63
2023-01-11T06:31:52.479Z,9.68
2023-01-11T06:32:52.676Z,9.70
2023-01-11T06:33:52.836Z,9.63
2023-01-11T06:34:52.991Z,9.76
2023-01-11T06:35:54.188Z,9.70
2023-01-11T06:36:54.165Z,9.68
2023-01-11T06:37:54.129Z,9.71
2023-01-11T06:38:53.675Z,9.67
2023-01-11T06:39:54.676Z,9.78
2023-01-11T06:40:54.055Z,9.71
2023-01-11T06:41:55.628Z,9.64
2023-01-11T06:42:55.131Z,9.71
2023-01-11T06:43:55.156Z,9.68
2023-01-11T06:44:54.668Z,9.78
2023-01-11T06:45:54.849Z,9.85
2023-01-11T06:46:55.193Z,9.81
2023-01-11T06:47:58.991Z,9.86
2023-01-11T06:48:55.426Z,9.83
2023-01-11T06:49:55.628Z,9.85
2023-01-11T06:50:56.663Z,9.78
2023-01-11T06:51:56.679Z,9.81
2023-01-11T06:52:56.059Z,9.82
2023-01-11T06:53:56.228Z,9.82
2023-01-11T06:54:57.640Z,9.76
2023-01-11T06:55:56.568Z,9.76
2023-01-11T06:56:56.739Z,9.79
2023-01-11T06:57:57.672Z,9.85
2023-01-11T06:58:57.111Z,9.85
2023-01-11T06:59:58.174Z,9.79
2023-01-11T07:00:57.491Z,9.82
2023-01-11T07:01:57.647Z,9.97
2023-01-11T07:02:57.826Z,9.93
2023-01-11T07:03:58.685Z,9.96
2023-01-11T07:04:58.259Z,9.94
2023-01-11T07:05:59.137Z,10.00
2023-01-11T07:06:58.523Z,9.94
2023-01-11T07:07:58.696Z,9.88
2023-01-11T07:08:58.839Z,9.86
2023-01-11T07:09:59.000Z,10.01
2023-01-11T07:10:59.753Z,9.99
2023-01-11T07:11:59.286Z,9.97
2023-01-11T07:12:59.454Z,9.97
2023-01-11T07:13:59.633Z,9.96
2023-01-11T07:15:00.671Z,9.97
2023-01-11T07:15:59.975Z,9.91
2023-01-11T07:17:01.134Z,9.94
2023-01-11T07:18:01.179Z,9.99
2023-01-11T07:19:00.444Z,9.97
2023-01-11T07:20:01.683Z,10.04
2023-01-11T07:21:01.183Z,10.01
2023-01-11T07:22:01.500Z,10.09
2023-01-11T07:23:01.162Z,9.99
2023-01-11T07:24:01.345Z,10.15
2023-01-11T07:25:02.521Z,10.01
2023-01-11T07:26:02.231Z,10.09
2023-01-11T07:27:02.676Z,10.07
2023-01-11T07:28:02.096Z,10.04
2023-01-11T07:29:02.258Z,10.06
2023-01-11T07:30:03.176Z,10.07
2023-01-11T07:31:03.251Z,10.03
2023-01-11T07:32:02.791Z,10.10
2023-01-11T07:33:03.003Z,10.09
2023-01-11T07:34:03.676Z,10.01
2023-01-11T07:35:03.324Z,10.10
2023-01-11T07:36:04.642Z,10.12
2023-01-11T07:37:03.657Z,10.15
2023-01-11T07:38:04.642Z,10.00
2023-01-11T07:39:04.011Z,10.07
2023-01-11T07:40:04.191Z,10.10
2023-01-11T07:41:04.330Z,10.15
2023-01-11T07:42:06.646Z,10.09
2023-01-11T07:43:04.626Z,10.06
2023-01-11T07:44:04.794Z,10.10
2023-01-11T07:45:04.974Z,10.04
2023-01-11T07:46:05.267Z,10.04
2023-01-11T07:47:06.187Z,10.14
2023-01-11T07:48:05.499Z,10.21
2023-01-11T07:49:06.211Z,10.12
2023-01-11T07:50:05.886Z,10.12
2023-01-11T07:51:06.041Z,10.09
2023-01-11T07:52:06.220Z,10.14
2023-01-11T07:53:06.380Z,10.18
2023-01-11T07:54:06.575Z,10.18
2023-01-11T07:55:07.641Z,10.07
2023-01-11T07:56:06.922Z,10.07
2023-01-11T07:57:07.640Z,10.15
2023-01-11T07:58:07.285Z,10.04
2023-01-11T07:59:07.495Z,10.18
2023-01-11T08:00:07.698Z,10.04
2023-01-11T08:01:07.920Z,10.06
2023-01-11T08:02:08.102Z,10.19
2023-01-11T08:03:09.325Z,10.10
2023-01-11T08:04:08.527Z,10.21
2023-01-11T08:05:10.644Z,10.07
2023-01-11T08:06:09.645Z,10.06
2023-01-11T08:07:09.696Z,10.09
2023-01-11T08:08:10.146Z,10.15
2023-01-11T08:09:09.435Z,10.12
2023-01-11T08:10:10.147Z,10.18
2023-01-11T08:11:11.650Z,10.18
2023-01-11T08:12:10.643Z,10.21
2023-01-11T08:13:10.687Z,10.26
2023-01-11T08:14:11.190Z,10.25
2023-01-11T08:15:10.468Z,10.28
2023-01-11T08:16:11.170Z,10.28
2023-01-11T08:17:10.859Z,10.33
2023-01-11T08:18:11.784Z,10.34
2023-01-11T08:19:11.285Z,10.39
2023-01-11T08:20:12.188Z,10.36
2023-01-11T08:21:14.885Z,10.37
2023-01-11T08:22:11.812Z,10.39
2023-01-11T08:23:12.091Z,10.34
2023-01-11T08:24:12.286Z,10.34
2023-01-11T08:25:12.459Z,10.25
2023-01-11T08:26:12.685Z,10.32
2023-01-11T08:27:12.899Z,10.30
2023-01-11T08:28:13.086Z,10.26
2023-01-11T08:29:13.310Z,10.30
2023-01-11T08:30:13.516Z,10.33
2023-01-11T08:31:13.829Z,10.30
2023-01-11T08:32:13.929Z,10.36
2023-01-11T08:33:14.092Z,10.33
2023-01-11T08:34:14.344Z,10.36
2023-01-11T08:35:15.188Z,10.28
2023-01-11T08:36:14.726Z,10.36
2023-01-11T08:37:15.721Z,10.21
2023-01-11T08:38:15.095Z,10.42
2023-01-11T08:39:16.192Z,10.28
2023-01-11T08:40:16.148Z,10.34
2023-01-11T08:41:15.657Z,10.26
2023-01-11T08:42:15.833Z,10.28
2023-01-11T08:43:16.017Z,10.32
2023-01-11T08:44:22.306Z,10.28
2023-01-11T08:45:17.311Z,10.22
2023-01-11T08:46:16.591Z,10.24
2023-01-11T08:47:16.792Z,10.30
2023-01-11T08:48:16.947Z,10.22
2023-01-11T08:49:17.158Z,10.24
2023-01-11T08:50:17.366Z,10.25
2023-01-11T08:51:18.174Z,10.19
2023-01-11T08:52:17.815Z,10.26
2023-01-11T08:53:18.761Z,10.30
2023-01-11T08:54:18.207Z,10.25
2023-01-11T08:55:19.172Z,10.26
2023-01-11T08:56:18.600Z,10.22
2023-01-11T08:57:18.763Z,10.26
2023-01-11T08:58:20.709Z,10.25
2023-01-11T08:59:19.116Z,10.25
2023-01-11T09:00:19.299Z,10.25
2023-01-11T09:01:19.504Z,10.22
2023-01-11T09:02:19.613Z,10.28
2023-01-11T09:03:20.704Z,10.26
2023-01-11T09:04:25.145Z,10.36
2023-01-11T09:05:22.124Z,10.39
2023-01-11T09:06:21.167Z,10.21
2023-01-11T09:07:20.438Z,10.34
2023-01-11T09:08:20.654Z,10.40
2023-01-11T09:09:20.854Z,10.42
2023-01-11T09:10:23.158Z,10.39
2023-01-11T09:11:22.668Z,10.40
2023-01-11T09:12:21.409Z,10.28
2023-01-11T09:13:22.161Z,10.36
2023-01-11T09:14:23.661Z,10.33
2023-01-11T09:15:22.028Z,10.33
2023-01-11T09:16:22.198Z,10.30
2023-01-11T09:17:24.163Z,10.30
2023-01-11T09:18:22.573Z,10.40
2023-01-11T09:19:23.667Z,10.32
2023-01-11T09:20:23.703Z,10.33
2023-01-11T09:21:23.716Z,10.28
2023-01-11T09:22:24.204Z,10.34
2023-01-11T09:23:23.592Z,10.26
2023-01-11T09:24:23.752Z,10.25
2023-01-11T09:25:24.215Z,10.32
2023-01-11T09:26:24.093Z,10.33
2023-01-11T09:27:24.228Z,10.37
2023-01-11T09:28:24.369Z,10.34
2023-01-11T09:29:25.268Z,10.34
2023-01-11T09:30:24.727Z,10.25
2023-01-11T09:31:25.747Z,10.36
2023-01-11T09:32:25.040Z,10.28
2023-01-11T09:33:26.174Z,10.24
2023-01-11T09:34:26.209Z,10.39
2023-01-11T09:35:25.455Z,10.28
2023-01-11T09:36:25.622Z,10.34
2023-01-11T09:37:25.815Z,10.36
2023-01-11T09:38:27.705Z,10.34
2023-01-11T09:39:26.190Z,10.30
2023-01-11T09:40:28.036Z,10.34
2023-01-11T09:41:26.549Z,10.28
2023-01-11T09:42:26.772Z,10.26
2023-01-11T09:43:26.919Z,10.26
2023-01-11T09:44:27.115Z,10.25
2023-01-11T09:45:27.312Z,10.25
2023-01-11T09:46:28.210Z,10.24
2023-01-11T09:47:27.691Z,10.28
2023-01-11T09:48:27.864Z,10.24
2023-01-11T09:49:28.715Z,10.21
2023-01-11T09:50:29.220Z,10.17
2023-01-11T09:51:28.514Z,10.22
2023-01-11T09:52:28.773Z,10.24
2023-01-11T09:53:28.948Z,10.25
2023-01-11T09:54:29.179Z,10.15
2023-01-11T09:55:29.289Z,10.15
2023-01-11T09:56:30.213Z,10.12
2023-01-11T09:57:29.747Z,10.14
2023-01-11T09:58:29.935Z,10.01
2023-01-11T09:59:30.136Z,10.04
2023-01-11T10:00:30.438Z,10.10
2023-01-11T10:01:30.531Z,10.03
2023-01-11T10:02:31.212Z,9.99
2023-01-11T10:03:31.669Z,10.03
2023-01-11T10:04:31.729Z,9.99
2023-01-11T10:05:31.319Z,10.04
2023-01-11T10:06:31.500Z,9.97
2023-01-11T10:07:31.705Z,9.96
2023-01-11T10:18:30.856Z,9.83
2023-01-11T10:18:32.763Z,9.88
2023-01-11T10:18:32.893Z,9.82
2023-01-11T10:18:35.337Z,9.86
2023-01-11T10:18:57.976Z,9.85
2023-01-11T10:19:40.656Z,9.82
2023-01-11T10:20:35.293Z,9.73
2023-01-11T10:21:35.217Z,9.66
2023-01-11T10:22:35.221Z,9.76
2023-01-11T10:23:34.742Z,9.71
2023-01-11T10:24:34.887Z,9.75
2023-01-11T10:25:35.072Z,9.66
2023-01-11T10:26:35.284Z,9.73
2023-01-11T10:27:35.500Z,9.66
2023-01-11T10:28:35.713Z,9.67
2023-01-11T10:29:36.721Z,9.68
2023-01-11T10:30:36.116Z,9.68
2023-01-11T10:31:37.234Z,9.67
2023-01-11T10:32:36.529Z,9.63
2023-01-11T10:33:37.681Z,9.60
2023-01-11T10:34:37.681Z,9.52
2023-01-11T10:35:37.777Z,9.45
2023-01-11T10:36:37.165Z,9.56
2023-01-11T10:37:37.322Z,9.56
2023-01-11T10:38:37.495Z,9.57
2023-01-11T10:39:37.648Z,9.52
2023-01-11T10:40:37.838Z,9.57
2023-01-11T10:41:37.956Z,9.56
2023-01-11T10:42:38.087Z,9.49
2023-01-11T10:43:39.192Z,9.50
2023-01-11T10:44:38.466Z,9.57
2023-01-11T10:45:39.750Z,9.57
2023-01-11T10:46:39.893Z,9.60
2023-01-11T10:47:39.725Z,9.53
2023-01-11T10:48:39.110Z,9.53
2023-01-11T10:49:40.226Z,9.56
2023-01-11T10:50:39.351Z,9.56
2023-01-11T10:51:39.515Z,9.58
2023-01-11T10:52:39.708Z,9.53
2023-01-11T10:53:39.879Z,9.57
2023-01-11T10:54:40.687Z,9.58
2023-01-11T10:55:40.207Z,9.56
2023-01-11T10:56:42.438Z,9.56
2023-01-11T10:57:59.328Z,9.48
2023-01-11T10:58:42.553Z,9.42
2023-01-11T10:59:41.253Z,9.49
2023-01-11T11:00:41.120Z,9.42
2023-01-11T11:01:41.337Z,9.48
2023-01-11T11:02:41.738Z,9.48
2023-01-11T11:03:42.197Z,9.48
2023-01-11T11:04:41.845Z,9.46
2023-01-11T11:05:42.008Z,9.45
2023-01-11T11:06:43.056Z,9.43
2023-01-11T11:07:42.743Z,9.49
2023-01-11T11:08:44.192Z,9.45
2023-01-11T11:09:42.699Z,9.39
2023-01-11T11:10:42.853Z,9.43
2023-01-11T11:11:43.737Z,9.42
2023-01-11T11:12:43.230Z,9.52
2023-01-11T11:13:43.586Z,9.48
2023-01-11T11:14:44.497Z,9.45
2023-01-11T11:15:44.236Z,9.42
2023-01-11T11:16:43.944Z,9.39
2023-01-11T11:17:44.706Z,9.56
2023-01-11T11:18:44.269Z,9.39
2023-01-11T11:19:44.460Z,9.43
2023-01-11T11:20:45.232Z,9.52
2023-01-11T11:21:44.896Z,9.56
2023-01-11T11:22:44.986Z,9.49
2023-01-11T11:23:45.163Z,9.48
2023-01-11T11:24:45.300Z,9.46
2023-01-11T11:25:45.449Z,9.46
2023-01-11T11:26:45.625Z,9.40
2023-01-11T11:27:45.781Z,9.48
2023-01-11T11:28:46.256Z,9.45
2023-01-11T11:29:46.149Z,9.42
2023-01-11T11:30:46.332Z,9.46
2023-01-11T11:31:47.271Z,9.32
2023-01-11T11:32:47.868Z,9.32
2023-01-11T11:33:47.915Z,9.28
2023-01-11T11:34:47.063Z,9.34
2023-01-11T11:35:47.246Z,9.38
2023-01-11T11:36:47.406Z,9.30
2023-01-11T11:37:47.599Z,9.31
2023-01-11T11:38:49.206Z,9.39
2023-01-11T11:39:48.744Z,9.24
2023-01-11T11:40:48.740Z,9.30
2023-01-11T11:41:48.413Z,9.23
2023-01-11T11:42:48.598Z,9.10
2023-01-11T11:43:48.787Z,9.23
2023-01-11T11:44:49.701Z,9.28
2023-01-11T11:45:49.165Z,9.18
2023-01-11T11:46:49.750Z,9.23
2023-01-11T11:47:50.204Z,9.27
2023-01-11T11:48:50.203Z,9.31
2023-01-11T11:49:49.746Z,9.23
2023-01-11T11:50:49.953Z,9.32
2023-01-11T11:51:50.139Z,9.20
2023-01-11T11:52:50.340Z,9.32
2023-01-11T11:53:51.247Z,9.31
2023-01-11T11:54:50.658Z,9.31
2023-01-11T11:55:50.871Z,9.23
2023-01-11T11:56:50.961Z,9.21
2023-01-11T11:57:51.711Z,9.18
2023-01-11T11:58:52.259Z,9.20
2023-01-11T11:59:51.568Z,9.20
2023-01-11T12:00:51.717Z,9.16
2023-01-11T12:01:52.776Z,9.18
2023-01-11T12:02:52.090Z,9.12
2023-01-11T12:03:53.255Z,9.13
2023-01-11T12:04:52.445Z,9.18
2023-01-11T12:05:52.626Z,9.18
2023-01-11T12:06:52.786Z,9.12
2023-01-11T12:07:55.583Z,9.20
2023-01-11T12:08:54.191Z,9.16
2023-01-11T12:09:53.360Z,9.20
2023-01-11T12:10:54.218Z,9.16
2023-01-11T12:11:53.765Z,9.15
2023-01-11T12:12:53.965Z,9.09
2023-01-11T12:13:54.190Z,9.10
2023-01-11T12:14:54.373Z,9.13
2023-01-11T12:15:57.209Z,9.02
2023-01-11T12:16:54.750Z,9.09
2023-01-11T12:17:54.916Z,9.10
2023-01-11T12:18:57.073Z,9.06
2023-01-11T12:19:55.317Z,8.99
2023-01-11T12:20:56.255Z,9.12
2023-01-11T12:21:55.650Z,9.06
2023-01-11T12:22:55.839Z,9.04
2023-01-11T12:23:56.050Z,9.13
2023-01-11T12:24:57.712Z,9.21
2023-01-11T12:25:56.370Z,9.09
2023-01-11T12:26:56.565Z,9.20
2023-01-11T12:27:56.759Z,9.12
2023-01-11T12:28:56.933Z,9.23
2023-01-11T12:29:57.095Z,9.23
2023-01-11T12:30:57.349Z,9.20
2023-01-11T12:31:57.421Z,9.21
2023-01-11T12:32:57.590Z,9.16
2023-01-11T12:33:58.751Z,9.13
2023-01-11T12:34:58.019Z,9.20
2023-01-11T12:35:58.227Z,9.12
2023-01-11T12:36:59.283Z,9.12
2023-01-11T12:37:58.543Z,9.18
2023-01-11T12:38:59.265Z,9.16
2023-01-11T12:39:58.901Z,9.04
2023-01-11T12:41:00.724Z,9.06
2023-01-11T12:41:59.713Z,8.97
2023-01-11T12:43:00.260Z,8.99
2023-01-11T12:43:59.494Z,9.15
2023-01-11T12:44:59.666Z,9.10
2023-01-11T12:46:01.269Z,9.16
2023-01-11T12:47:00.716Z,9.09
2023-01-11T12:48:00.265Z,9.16
2023-01-11T12:49:00.447Z,9.06
2023-01-11T12:50:01.218Z,9.04
2023-01-11T12:51:00.765Z,9.15
2023-01-11T12:52:01.753Z,9.12
2023-01-11T12:53:01.174Z,8.99
2023-01-11T12:54:01.341Z,9.05
2023-01-11T12:55:01.510Z,9.01
2023-01-11T12:56:01.684Z,9.06
2023-01-11T12:57:01.897Z,9.10
2023-01-11T12:58:02.278Z,9.20
2023-01-11T12:59:02.190Z,9.13
2023-01-11T13:00:03.260Z,9.24
2023-01-11T13:01:02.541Z,9.18
2023-01-11T13:02:04.273Z,9.27
2023-01-11T13:03:02.910Z,9.31
2023-01-11T13:04:03.101Z,9.28
2023-01-11T13:05:04.224Z,9.38
2023-01-11T13:06:04.267Z,9.28
2023-01-11T13:07:04.388Z,9.48
2023-01-11T13:08:05.745Z,9.61
2023-01-11T13:09:05.218Z,9.39
2023-01-11T13:10:04.278Z,9.52
2023-01-11T13:11:04.441Z,9.48
2023-01-11T13:12:06.228Z,9.49
2023-01-11T13:13:04.857Z,9.50
2023-01-11T13:14:05.008Z,9.50
2023-01-11T13:15:05.227Z,9.50
2023-01-11T13:16:05.409Z,9.35
2023-01-11T13:17:06.286Z,9.39
2023-01-11T13:18:06.264Z,9.39
2023-01-11T13:19:07.715Z,9.45
2023-01-11T13:20:06.092Z,9.39
2023-01-11T13:21:07.055Z,9.25